Time;durP1;ratioP1;P1;durP2;ratioP2;P2;SDS_P1;SDS_P2;PMS_P1;PMS_P2;Temp;Humidity;BMP_temperature;BMP_pressure;BME280_temperature;BME280_humidity;BME280_pressure;Samples;Min_cycle;Max_cycle;Signal;HPM_P1;HPM_P2
2021/08/08 00:01:34;;;;;;;;;;;17.10;99.90;;;;;;5010207;28;19958;-67
2021/08/08 00:04:01;;;;;;;;;;;17.20;99.90;;;;;;5009259;28;19957;-65
2021/08/08 00:06:28;;;;;;;;;;;17.20;99.90;;;;;;5012728;28;20017;-67
2021/08/08 00:08:55;;;;;;;;;;;17.20;99.90;;;;;;5006900;28;20414;-65
2021/08/08 00:11:21;;;;;;;;;;;17.10;99.90;;;;;;5011234;28;20005;-66
2021/08/08 00:13:49;;;;;;;;;;;17.10;99.90;;;;;;5011734;28;20319;-69
2021/08/08 00:16:16;;;;;;;;;;;17.10;99.90;;;;;;5010402;28;20724;-66
2021/08/08 00:18:43;;;;;;;;;;;17.10;99.90;;;;;;5008861;28;20438;-65
2021/08/08 00:21:09;;;;;;;;;;;17.10;99.90;;;;;;5013047;28;19958;-65
2021/08/08 00:23:36;;;;;;;;;;;17.10;99.90;;;;;;5011721;28;20374;-65
2021/08/08 00:26:02;;;;;;;;;;;17.10;99.90;;;;;;5011466;28;19962;-66
2021/08/08 00:28:29;;;;;;;;;;;17.00;99.90;;;;;;5007253;28;19958;-66
2021/08/08 00:30:58;;;;;;;;;;;17.00;99.90;;;;;;5009012;28;20362;-67
2021/08/08 00:33:25;;;;;;;;;;;16.90;99.90;;;;;;5007121;28;20068;-64
2021/08/08 00:35:53;;;;;;;;;;;16.90;99.90;;;;;;5005529;28;20049;-68
2021/08/08 00:38:24;;;;;;;;;;;17.00;99.90;;;;;;5005101;28;19969;-65
2021/08/08 00:40:51;;;;;;;;;;;16.90;99.90;;;;;;5012703;28;19961;-66
2021/08/08 00:43:18;;;;;;;;;;;16.90;99.90;;;;;;5008486;28;20449;-66
2021/08/08 00:45:48;;;;;;;;;;;16.90;99.90;;;;;;5010055;28;20076;-67
2021/08/08 00:48:18;;;;;;;;;;;16.90;99.90;;;;;;5005331;28;19973;-67
2021/08/08 00:50:49;;;;;;;;;;;16.90;99.90;;;;;;5009487;28;20426;-67
2021/08/08 00:53:20;;;;;;;;;;;16.90;99.90;;;;;;5005604;28;19969;-67
2021/08/08 00:55:49;;;;;;;;;;;16.90;99.90;;;;;;5006949;28;19958;-68
2021/08/08 00:58:16;;;;;;;;;;;17.00;99.90;;;;;;5009672;28;20048;-64
2021/08/08 01:00:52;;;;;;;;;;;17.00;99.90;;;;;;5007168;28;19965;-66
2021/08/08 01:03:21;;;;;;;;;;;17.00;99.90;;;;;;5009750;28;20012;-68
2021/08/08 01:05:51;;;;;;;;;;;17.00;99.90;;;;;;5007458;28;20397;-68
2021/08/08 01:08:24;;;;;;;;;;;17.00;99.90;;;;;;5006985;28;19969;-68
2021/08/08 01:10:52;;;;;;;;;;;17.00;99.90;;;;;;5007572;28;19958;-66
2021/08/08 01:13:19;;;;;;;;;;;17.00;99.90;;;;;;5004947;28;20433;-67
2021/08/08 01:15:47;;;;;;;;;;;17.00;99.90;;;;;;5008048;28;20364;-66
2021/08/08 01:18:15;;;;;;;;;;;17.10;99.90;;;;;;5007038;28;20082;-65
2021/08/08 01:20:44;;;;;;;;;;;17.10;99.90;;;;;;5011633;28;19962;-68
2021/08/08 01:23:13;;;;;;;;;;;17.10;99.90;;;;;;5007988;28;19958;-66
2021/08/08 01:25:44;;;;;;;;;;;17.10;99.90;;;;;;5005466;28;19965;-66
2021/08/08 01:28:12;;;;;;;;;;;17.20;99.90;;;;;;5006596;28;19966;-69
2021/08/08 01:30:42;;;;;;;;;;;17.20;99.90;;;;;;5010188;28;19996;-64
2021/08/08 01:33:09;;;;;;;;;;;17.20;99.90;;;;;;5005505;28;19958;-68
2021/08/08 01:35:43;;;;;;;;;;;17.20;99.90;;;;;;5007664;28;19966;-69
2021/08/08 01:38:11;;;;;;;13.63;5.18;;;17.20;99.90;;;;;;5006114;28;20234;-65
2021/08/08 01:40:49;;;;;;;13.70;5.38;;;17.30;99.90;;;;;;5004260;28;20215;-67
2021/08/08 01:43:23;;;;;;;14.65;6.30;;;17.30;99.90;;;;;;5006194;28;20297;-68
2021/08/08 01:45:50;;;;;;;17.92;6.50;;;17.30;99.90;;;;;;5007932;28;20821;-68
2021/08/08 01:48:21;;;;;;;21.23;6.90;;;17.40;99.90;;;;;;5008469;28;20204;-67
2021/08/08 01:50:49;;;;;;;20.13;6.75;;;17.30;99.90;;;;;;5007452;28;20693;-67
2021/08/08 01:53:18;;;;;;;19.02;6.55;;;17.40;99.90;;;;;;5006872;28;20693;-67
2021/08/08 01:55:46;;;;;;;14.75;6.47;;;17.30;99.90;;;;;;5011246;28;20224;-69
2021/08/08 01:58:13;;;;;;;23.45;7.47;;;17.40;99.90;;;;;;5003540;28;20205;-66
2021/08/08 02:00:43;;;;;;;19.83;6.82;;;17.40;99.90;;;;;;4989997;28;20211;-64
2021/08/08 02:03:19;;;;;;;26.83;7.78;;;17.40;99.90;;;;;;5007699;28;20287;-68
2021/08/08 02:05:51;;;;;;;21.67;7.70;;;17.50;99.90;;;;;;5001631;28;20204;-66
2021/08/08 02:08:20;;;;;;;31.92;9.23;;;17.50;99.90;;;;;;5006431;28;20207;-69
2021/08/08 02:10:59;;;;;;;25.30;8.55;;;17.50;99.90;;;;;;5010777;28;20236;-66
2021/08/08 02:13:34;;;;;;;25.35;8.40;;;17.40;99.90;;;;;;5003468;28;20783;-65
2021/08/08 02:16:03;;;;;;;27.38;8.98;;;17.40;99.90;;;;;;5002582;28;20201;-67
2021/08/08 02:18:30;;;;;;;32.65;9.68;;;17.30;99.90;;;;;;5002742;28;20205;-65
2021/08/08 02:20:57;;;;;;;32.20;8.98;;;17.30;99.90;;;;;;5005440;28;20200;-66
2021/08/08 02:23:24;;;;;;;29.15;9.80;;;17.20;99.90;;;;;;5007809;28;20192;-66
2021/08/08 02:25:53;;;;;;;31.20;8.30;;;17.20;99.90;;;;;;5007034;28;20259;-67
2021/08/08 02:28:27;;;;;;;32.13;8.80;;;17.20;99.90;;;;;;5006279;28;20212;-66
2021/08/08 02:30:54;;;;;;;33.03;8.10;;;17.10;99.90;;;;;;5008935;28;20200;-66
2021/08/08 02:33:26;;;;;;;25.77;7.43;;;17.10;99.90;;;;;;5006439;28;20216;-66
2021/08/08 02:35:53;;;;;;;35.72;8.27;;;17.10;99.90;;;;;;5000366;28;20266;-68
2021/08/08 02:38:22;;;;;;;26.92;7.45;;;17.10;99.90;;;;;;5005769;28;20211;-66
2021/08/08 02:40:54;;;;;;;35.95;7.72;;;17.10;99.90;;;;;;5007685;28;20296;-65
2021/08/08 02:43:21;;;;;;;28.83;7.45;;;17.10;99.90;;;;;;5007064;28;20557;-67
2021/08/08 02:45:50;;;;;;;28.90;7.43;;;17.10;99.90;;;;;;5011181;28;20195;-65
2021/08/08 02:48:18;;;;;;;32.70;8.43;;;17.10;99.90;;;;;;5006322;28;20228;-64
2021/08/08 02:50:45;;;;;;;22.83;7.22;;;17.10;99.90;;;;;;5007981;28;20208;-67
2021/08/08 02:53:12;;;;;;;26.35;7.38;;;17.00;99.90;;;;;;5013043;28;20208;-64
2021/08/08 02:55:42;;;;;;;21.73;7.18;;;17.00;99.90;;;;;;5007059;28;20205;-66
2021/08/08 02:58:09;;;;;;;19.05;6.45;;;17.00;99.90;;;;;;5009277;28;20284;-65
2021/08/08 03:00:38;;;;;;;20.48;6.53;;;17.00;99.90;;;;;;5006511;28;20211;-64
2021/08/08 03:03:07;;;;;;;23.15;6.18;;;17.00;99.90;;;;;;5011474;28;20203;-67
2021/08/08 03:05:35;;;;;;;24.60;6.47;;;17.00;99.90;;;;;;5012057;28;20208;-67
2021/08/08 03:08:02;;;;;;;18.95;6.25;;;17.00;99.90;;;;;;5009997;28;20287;-65
2021/08/08 03:10:30;;;;;;;31.23;6.68;;;17.00;99.90;;;;;;5009087;28;20228;-68
2021/08/08 03:12:57;;;;;;;20.33;6.38;;;17.00;99.90;;;;;;5009090;28;20215;-67
2021/08/08 03:15:24;;;;;;;27.02;7.47;;;17.00;99.90;;;;;;5006828;28;20229;-65
2021/08/08 03:17:51;;;;;;;18.30;6.25;;;16.90;99.90;;;;;;5007545;28;20204;-66
2021/08/08 03:20:20;;;;;;;23.73;6.40;;;17.00;99.90;;;;;;5017437;28;20223;-64
2021/08/08 03:22:47;;;;;;;21.35;6.35;;;17.00;99.90;;;;;;5014563;28;20649;-68
2021/08/08 03:25:15;;;;;;;19.23;6.18;;;17.00;99.90;;;;;;5011055;28;20209;-68
2021/08/08 03:27:42;;;;;;;23.75;6.15;;;17.00;99.90;;;;;;5006092;28;20235;-65
2021/08/08 03:30:13;;;;;;;19.08;5.72;;;17.00;99.90;;;;;;5007745;28;20242;-69
2021/08/08 03:32:41;;;;;;;19.67;6.18;;;17.00;99.90;;;;;;5007817;28;20201;-67
2021/08/08 03:35:09;;;;;;;19.98;5.95;;;17.10;99.90;;;;;;5013259;28;20228;-64
2021/08/08 03:37:37;;;;;;;19.65;6.32;;;17.00;99.90;;;;;;5007929;28;20214;-67
2021/08/08 03:40:05;;;;;;;18.38;5.78;;;17.00;99.90;;;;;;5007980;28;20744;-67
2021/08/08 03:42:32;;;;;;;19.13;5.70;;;17.00;99.90;;;;;;5015170;28;20204;-69
2021/08/08 03:45:00;;;;;;;19.38;6.20;;;17.00;99.90;;;;;;5004532;28;20208;-66
2021/08/08 03:47:28;;;;;;;22.27;6.57;;;17.00;99.90;;;;;;5014084;28;20200;-68
2021/08/08 03:49:56;;;;;;;18.02;5.40;;;17.00;99.90;;;;;;5000894;28;20624;-66
2021/08/08 03:52:22;;;;;;;18.00;6.03;;;16.90;99.90;;;;;;5011672;28;20204;-66
2021/08/08 03:54:51;;;;;;;28.52;5.70;;;17.00;99.90;;;;;;5010308;28;20587;-67
2021/08/08 03:57:18;;;;;;;22.25;5.95;;;17.00;99.90;;;;;;5007549;28;20699;-65
2021/08/08 03:59:44;;;;;;;23.10;5.22;;;17.00;99.90;;;;;;5003810;28;20200;-66
2021/08/08 04:02:12;;;;;;;29.52;5.63;;;17.00;99.90;;;;;;5002195;28;20672;-69
2021/08/08 04:04:38;;;;;;;20.10;5.35;;;17.00;99.90;;;;;;5010116;28;20271;-67
2021/08/08 04:07:05;;;;;;;26.80;6.13;;;17.00;99.90;;;;;;5009381;28;21936;-67
2021/08/08 04:09:32;;;;;;;16.75;5.43;;;17.00;99.90;;;;;;5012293;28;20212;-65
2021/08/08 04:12:00;;;;;;;21.75;5.47;;;17.00;99.90;;;;;;5011786;28;20228;-68
2021/08/08 04:14:27;;;;;;;24.25;5.28;;;17.10;99.90;;;;;;5012031;28;20219;-65
2021/08/08 04:16:54;;;;;;;20.17;5.40;;;17.00;99.90;;;;;;5011823;28;20208;-66
2021/08/08 04:19:21;;;;;;;21.83;6.38;;;17.00;99.90;;;;;;5012664;28;20279;-68
2021/08/08 04:21:48;;;;;;;28.92;6.18;;;17.00;99.90;;;;;;5014068;28;20208;-63
2021/08/08 04:24:15;;;;;;;24.90;6.90;;;17.00;99.90;;;;;;5012497;28;20204;-64
2021/08/08 04:26:42;;;;;;;19.77;5.67;;;17.00;99.90;;;;;;5003926;28;20201;-63
2021/08/08 04:29:10;;;;;;;24.05;6.07;;;16.90;99.90;;;;;;5004531;28;20228;-65
2021/08/08 04:31:37;;;;;;;27.02;5.82;;;17.00;99.90;;;;;;5008837;28;20304;-65
2021/08/08 04:34:06;;;;;;;21.02;5.90;;;16.90;99.90;;;;;;5009206;28;20216;-63
2021/08/08 04:36:33;;;;;;;22.50;6.07;;;16.80;99.90;;;;;;5010058;28;20199;-63
2021/08/08 04:39:00;;;;;;;22.42;6.07;;;16.70;99.90;;;;;;5006206;28;20247;-66
2021/08/08 04:41:27;;;;;;;27.98;7.00;;;16.70;99.90;;;;;;5001105;28;20624;-62
2021/08/08 04:43:54;;;;;;;29.80;6.50;;;16.70;99.90;;;;;;5008204;28;20201;-64
2021/08/08 04:46:22;;;;;;;24.73;6.22;;;16.60;99.90;;;;;;5009910;28;20272;-65
2021/08/08 04:48:49;;;;;;;30.73;6.88;;;16.60;99.90;;;;;;5014728;28;20220;-63
2021/08/08 04:51:16;;;;;;;26.70;5.80;;;16.60;99.90;;;;;;5004459;28;20250;-67
2021/08/08 04:53:43;;;;;;;;;;;16.60;99.90;;;;;;5005608;28;20201;-65
2021/08/08 04:56:09;;;;;;;;;;;16.50;99.90;;;;;;5010015;28;20422;-65
2021/08/08 04:58:36;;;;;;;23.77;6.93;;;16.50;99.90;;;;;;5026672;28;20152;-65
2021/08/08 05:01:03;;;;;;;25.70;6.15;;;16.50;99.90;;;;;;5009515;28;20653;-62
2021/08/08 05:03:33;;;;;;;17.77;5.18;;;16.60;99.90;;;;;;5008154;28;20691;-66
2021/08/08 05:05:59;;;;;;;21.33;5.65;;;16.50;99.90;;;;;;5006363;28;20687;-67
2021/08/08 05:08:26;;;;;;;27.80;5.72;;;16.60;99.90;;;;;;5003442;28;20205;-64
2021/08/08 05:10:53;;;;;;;22.15;5.60;;;16.60;99.90;;;;;;5010706;28;20239;-65
2021/08/08 05:13:20;;;;;;;24.50;4.97;;;16.60;99.90;;;;;;5005742;28;20211;-65
2021/08/08 05:15:50;;;;;;;17.55;4.90;;;16.60;99.90;;;;;;5012453;28;20224;-64
2021/08/08 05:18:18;;;;;;;19.60;5.00;;;16.60;99.90;;;;;;5004671;28;20255;-65
2021/08/08 05:20:46;;;;;;;22.08;5.20;;;16.60;99.90;;;;;;5005107;28;20215;-66
2021/08/08 05:23:13;;;;;;;16.50;4.65;;;16.60;99.90;;;;;;5006230;28;20212;-64
2021/08/08 05:25:40;;;;;;;21.70;4.88;;;16.70;99.90;;;;;;5010508;28;20578;-63
2021/08/08 05:28:07;;;;;;;25.08;5.78;;;16.70;99.90;;;;;;5014611;28;20208;-67
2021/08/08 05:30:34;;;;;;;19.60;5.20;;;16.70;99.90;;;;;;5009537;28;20213;-64
2021/08/08 05:33:01;;;;;;;24.48;4.45;;;16.70;99.90;;;;;;5010876;28;20296;-65
2021/08/08 05:35:28;;;;;;;18.23;4.53;;;16.80;99.90;;;;;;5004940;28;20266;-67
2021/08/08 05:37:57;;;;;;;21.42;4.40;;;16.80;99.90;;;;;;5007839;28;20597;-66
2021/08/08 05:40:24;;;;;;;18.73;5.00;;;16.80;99.90;;;;;;5009132;28;20267;-66
2021/08/08 05:42:52;;;;;;;20.60;4.65;;;16.90;99.90;;;;;;5002995;28;20212;-63
2021/08/08 05:45:20;;;;;;;18.42;4.90;;;16.90;99.90;;;;;;5003410;28;20193;-63
2021/08/08 05:47:47;;;;;;;19.25;4.80;;;16.90;99.90;;;;;;5004114;28;20682;-64
2021/08/08 05:50:14;;;;;;;17.30;3.85;;;17.00;99.90;;;;;;5003308;28;20223;-64
2021/08/08 05:52:46;;;;;;;26.75;5.00;;;17.00;99.90;;;;;;5004480;28;20567;-63
2021/08/08 05:55:14;;;;;;;15.05;3.85;;;17.00;99.90;;;;;;5009260;28;20295;-66
2021/08/08 05:57:41;;;;;;;27.90;4.60;;;17.10;99.90;;;;;;5011358;28;20207;-70
2021/08/08 06:00:09;;;;;;;20.27;4.63;;;17.10;99.90;;;;;;5007663;28;20291;-68
2021/08/08 06:02:42;;;;;;;23.33;4.65;;;17.10;99.90;;;;;;5007260;28;20216;-65
2021/08/08 06:05:11;;;;;;;16.90;3.67;;;17.10;99.90;;;;;;5005639;28;20259;-67
2021/08/08 06:07:39;;;;;;;23.48;4.65;;;17.10;99.90;;;;;;5006667;28;20239;-65
2021/08/08 06:10:08;;;;;;;15.98;3.78;;;17.10;99.90;;;;;;5003554;28;20232;-67
2021/08/08 06:12:37;;;;;;;17.38;4.78;;;17.10;99.90;;;;;;5009763;28;20287;-64
2021/08/08 06:15:05;;;;;;;20.65;4.40;;;17.10;99.90;;;;;;5005190;28;20242;-66
2021/08/08 06:17:33;;;;;;;21.73;4.20;;;17.20;99.90;;;;;;5005001;28;20211;-69
2021/08/08 06:20:00;;;;;;;21.02;3.90;;;17.20;99.90;;;;;;5011166;28;20262;-66
2021/08/08 06:22:30;;;;;;;24.33;4.32;;;17.20;99.90;;;;;;5008294;28;20201;-65
2021/08/08 06:24:57;;;;;;;18.60;3.75;;;17.20;99.90;;;;;;5008430;28;20555;-65
2021/08/08 06:27:24;;;;;;;17.88;3.88;;;17.30;99.90;;;;;;5009886;28;20221;-65
2021/08/08 06:29:52;;;;;;;16.58;3.78;;;17.30;99.90;;;;;;5008771;28;20216;-66
2021/08/08 06:32:19;;;;;;;28.98;4.65;;;17.30;99.90;;;;;;5008601;28;20201;-67
2021/08/08 06:34:46;;;;;;;23.17;4.18;;;17.40;99.90;;;;;;5010167;28;20282;-68
2021/08/08 06:37:13;;;;;;;21.77;5.00;;;17.40;99.90;;;;;;5011337;28;20629;-66
2021/08/08 06:39:41;;;;;;;27.65;4.43;;;17.50;99.90;;;;;;5008725;28;20308;-67
2021/08/08 06:42:08;;;;;;;16.58;3.40;;;17.50;99.90;;;;;;5009479;28;20618;-67
2021/08/08 06:44:41;;;;;;;24.50;4.32;;;17.50;99.90;;;;;;5011195;28;20211;-65
2021/08/08 06:47:09;;;;;;;15.93;3.60;;;17.60;99.90;;;;;;5008692;28;20223;-65
2021/08/08 06:49:37;;;;;;;17.58;3.20;;;17.60;99.90;;;;;;5008591;28;20570;-66
2021/08/08 06:52:04;;;;;;;19.58;3.85;;;17.60;99.90;;;;;;5011589;28;20212;-64
2021/08/08 06:54:31;;;;;;;18.90;3.45;;;17.60;99.90;;;;;;5008713;28;20213;-65
2021/08/08 06:56:58;;;;;;;17.60;3.20;;;17.70;99.90;;;;;;5010517;28;20240;-70
2021/08/08 06:59:29;;;;;;;19.55;3.47;;;17.70;99.90;;;;;;5008113;28;20196;-64
2021/08/08 07:01:57;;;;;;;28.30;4.05;;;17.70;99.90;;;;;;5011828;28;20204;-65
2021/08/08 07:04:27;;;;;;;20.33;4.40;;;17.70;99.90;;;;;;5012675;28;20385;-65
2021/08/08 07:06:53;;;;;;;29.50;5.00;;;17.70;99.90;;;;;;5010722;28;20208;-68
2021/08/08 07:09:20;;;;;;;26.58;3.90;;;17.80;99.90;;;;;;5011760;28;21079;-66
2021/08/08 07:11:47;;;;;;;23.77;4.38;;;17.90;99.90;;;;;;5007264;28;20224;-64
2021/08/08 07:14:28;;;;;;;20.38;3.53;;;17.90;99.90;;;;;;5005419;28;20211;-66
2021/08/08 07:16:55;;;;;;;25.08;3.63;;;18.00;99.90;;;;;;5013883;28;20212;-69
2021/08/08 07:19:22;;;;;;;27.85;3.83;;;18.10;99.90;;;;;;5006160;28;20228;-67
2021/08/08 07:21:53;;;;;;;25.80;3.78;;;18.10;99.90;;;;;;5010691;28;20208;-66
2021/08/08 07:24:20;;;;;;;25.50;3.92;;;18.20;99.90;;;;;;5010507;28;20255;-70
2021/08/08 07:26:49;;;;;;;19.27;3.70;;;18.20;99.90;;;;;;5010529;28;20207;-64
2021/08/08 07:29:15;;;;;;;19.60;3.72;;;18.20;99.90;;;;;;5009310;28;20205;-69
2021/08/08 07:31:42;;;;;;;28.60;4.07;;;18.20;99.90;;;;;;5006263;28;20228;-67
2021/08/08 07:34:10;;;;;;;23.92;3.92;;;18.20;99.90;;;;;;5006516;28;20204;-65
2021/08/08 07:36:37;;;;;;;24.45;3.67;;;18.20;99.90;;;;;;5012125;28;20707;-66
2021/08/08 07:39:07;;;;;;;22.88;3.75;;;18.30;99.90;;;;;;5008454;28;20665;-69
2021/08/08 07:41:34;;;;;;;23.48;3.53;;;18.30;99.90;;;;;;5007062;28;20208;-68
2021/08/08 07:44:01;;;;;;;24.00;3.45;;;18.30;99.90;;;;;;5013252;28;20213;-68
2021/08/08 07:46:28;;;;;;;22.40;4.00;;;18.30;99.90;;;;;;5010534;28;20209;-69
2021/08/08 07:48:55;;;;;;;18.40;3.38;;;18.40;99.90;;;;;;5011888;28;20200;-68
2021/08/08 07:51:24;;;;;;;20.08;3.70;;;18.40;99.90;;;;;;5007941;28;20208;-65
2021/08/08 07:53:50;;;;;;;25.95;4.45;;;18.50;99.90;;;;;;5007222;28;20214;-66
2021/08/08 07:56:19;;;;;;;37.38;5.00;;;18.50;99.90;;;;;;5010067;28;20229;-68
2021/08/08 07:58:47;;;;;;;19.48;3.70;;;18.60;99.90;;;;;;5010436;28;20205;-64
2021/08/08 08:01:14;;;;;;;34.85;4.50;;;18.60;99.90;;;;;;5010519;28;20201;-67
2021/08/08 08:03:42;;;;;;;24.05;4.68;;;18.70;99.90;;;;;;5006526;28;20299;-68
2021/08/08 08:06:08;;;;;;;21.55;3.90;;;18.70;99.90;;;;;;5008322;28;20212;-67
2021/08/08 08:08:36;;;;;;;34.90;4.88;;;18.70;99.90;;;;;;5010017;28;20663;-69
2021/08/08 08:11:03;;;;;;;23.52;4.07;;;18.70;99.90;;;;;;5010797;28;20237;-66
2021/08/08 08:13:31;;;;;;;32.25;5.13;;;18.70;99.90;;;;;;5008819;28;20204;-66
2021/08/08 08:15:58;;;;;;;26.23;4.38;;;18.70;99.90;;;;;;5008816;28;20231;-65
2021/08/08 08:18:25;;;;;;;24.17;4.05;;;18.80;99.90;;;;;;5005876;28;20203;-67
2021/08/08 08:20:52;;;;;;;24.80;4.95;;;18.80;99.90;;;;;;5009928;28;20208;-66
2021/08/08 08:23:20;;;;;;;25.67;4.68;;;18.90;99.90;;;;;;5007119;28;20200;-67
2021/08/08 08:25:48;;;;;;;23.88;4.63;;;19.00;99.90;;;;;;5011223;28;20211;-70
2021/08/08 08:28:15;;;;;;;20.98;4.38;;;19.10;99.90;;;;;;5004348;28;20204;-68
2021/08/08 08:30:43;;;;;;;22.65;4.78;;;19.00;99.90;;;;;;5008793;28;20212;-65
2021/08/08 08:33:10;;;;;;;22.90;4.97;;;18.90;99.90;;;;;;5009749;28;20566;-64
2021/08/08 08:35:38;;;;;;;19.83;5.10;;;18.70;99.90;;;;;;5007790;28;20224;-68
2021/08/08 08:38:07;;;;;;;24.92;5.22;;;18.70;99.90;;;;;;5005752;28;20551;-65
2021/08/08 08:40:37;;;;;;;24.80;5.40;;;18.70;99.90;;;;;;5004992;28;20227;-65
2021/08/08 08:43:07;;;;;;;17.17;4.70;;;18.60;99.90;;;;;;5011638;28;20196;-66
2021/08/08 08:45:36;;;;;;;23.85;5.85;;;18.50;99.90;;;;;;5011216;28;20196;-66
2021/08/08 08:48:06;;;;;;;22.10;5.70;;;18.40;99.90;;;;;;5011967;28;20212;-66
2021/08/08 08:50:35;;;;;;;21.30;5.28;;;18.30;99.90;;;;;;5010717;28;20212;-65
2021/08/08 08:53:03;;;;;;;27.55;6.78;;;18.50;99.90;;;;;;5009301;28;20216;-66
2021/08/08 08:55:31;;;;;;;15.18;4.38;;;18.60;99.90;;;;;;5007762;28;20226;-66
2021/08/08 08:57:59;;;;;;;22.00;5.63;;;18.70;99.90;;;;;;5007566;28;20213;-69
2021/08/08 09:00:26;;;;;;;24.27;5.45;;;18.80;99.90;;;;;;5008687;28;20208;-68
2021/08/08 09:02:54;;;;;;;27.92;5.90;;;18.90;99.90;;;;;;5010644;28;20450;-66
2021/08/08 09:05:24;;;;;;;28.80;5.85;;;19.20;99.90;;;;;;5007415;28;20835;-63
2021/08/08 09:07:52;;;;;;;;;;;19.80;99.90;;;;;;5006989;28;20611;-68
2021/08/08 09:10:23;;;;;;;24.63;5.00;;;20.00;99.90;;;;;;5006632;28;20045;-66
2021/08/08 09:12:59;;;;;;;25.83;4.80;;;20.30;99.90;;;;;;5007786;28;20972;-65
2021/08/08 09:15:31;;;;;;;;;;;20.40;99.90;;;;;;5011812;28;20763;-70
2021/08/08 09:18:09;;;;;;;20.35;4.50;;;20.50;99.80;;;;;;5008089;28;20516;-66
2021/08/08 09:20:39;;;;;;;23.98;5.10;;;21.00;96.80;;;;;;5007500;28;20462;-67
2021/08/08 09:23:06;;;;;;;23.80;5.07;;;21.00;96.10;;;;;;5005505;28;20197;-65
2021/08/08 09:25:33;;;;;;;23.08;4.97;;;20.50;97.00;;;;;;5010929;28;20954;-67
2021/08/08 09:28:07;;;;;;;19.75;4.95;;;20.30;97.00;;;;;;5008033;28;20454;-64
2021/08/08 09:30:38;;;;;;;18.77;4.75;;;20.40;96.50;;;;;;5006005;28;20199;-67
2021/08/08 09:33:06;;;;;;;18.83;5.03;;;20.00;97.50;;;;;;5010862;28;20227;-67
2021/08/08 09:35:34;;;;;;;25.77;5.07;;;19.60;98.10;;;;;;5007349;28;20213;-67
2021/08/08 09:38:04;;;;;;;14.02;4.07;;;19.30;98.50;;;;;;5005257;28;20564;-67
2021/08/08 09:40:32;;;;;;;24.88;4.70;;;19.10;99.10;;;;;;5008967;28;20662;-67
2021/08/08 09:42:59;;;;;;;17.00;4.05;;;18.90;99.60;;;;;;5007135;28;20200;-67
2021/08/08 09:45:37;;;;;;;16.95;4.55;;;18.80;99.90;;;;;;5010277;28;20193;-67
2021/08/08 09:48:05;;;;;;;22.77;4.75;;;18.70;99.90;;;;;;5011893;28;20605;-64
2021/08/08 09:50:33;;;;;;;21.10;5.40;;;18.60;99.90;;;;;;5006647;28;20224;-67
2021/08/08 09:53:03;;;;;;;26.15;5.95;;;18.30;99.90;;;;;;5011614;28;20208;-63
2021/08/08 09:55:33;;;;;;;21.25;6.25;;;18.10;99.90;;;;;;5008085;28;20229;-64
2021/08/08 09:58:01;;;;;;;21.35;5.57;;;18.10;99.90;;;;;;5013783;28;20238;-63
2021/08/08 10:00:30;;;;;;;27.02;6.38;;;18.30;99.90;;;;;;5016186;28;20208;-64
2021/08/08 10:02:58;;;;;;;27.80;6.28;;;19.00;99.90;;;;;;5017502;28;20907;-66
2021/08/08 10:05:26;;;;;;;25.75;5.07;;;20.60;99.90;;;;;;5013626;28;20196;-67
2021/08/08 10:07:54;;;;;;;25.83;4.78;;;20.70;99.90;;;;;;5016448;28;20254;-66
2021/08/08 10:10:23;;;;;;;24.70;5.10;;;20.50;99.90;;;;;;5016365;28;20592;-66
2021/08/08 10:13:06;;;;;;;26.10;5.45;;;20.20;99.90;;;;;;5015833;28;20289;-66
2021/08/08 10:15:34;;;;;;;27.42;5.38;;;20.00;99.90;;;;;;5015629;28;20200;-65
2021/08/08 10:18:02;;;;;;;21.90;4.25;;;20.00;99.90;;;;;;5016533;28;20196;-64
2021/08/08 10:20:31;;;;;;;25.67;3.83;;;20.10;99.90;;;;;;5014215;28;20239;-66
2021/08/08 10:23:00;;;;;;;20.10;4.40;;;20.10;99.40;;;;;;5014150;28;20262;-65
2021/08/08 10:25:29;;;;;;;21.13;4.38;;;20.10;99.20;;;;;;5012486;28;20196;-69
2021/08/08 10:27:57;;;;;;;21.33;4.28;;;20.20;98.90;;;;;;5015738;28;20307;-66
2021/08/08 10:30:24;;;;;;;17.13;4.20;;;20.30;98.50;;;;;;5012691;28;20204;-66
2021/08/08 10:32:51;;;;;;;16.88;3.47;;;20.60;98.00;;;;;;5017043;28;20606;-69
2021/08/08 10:35:18;;;;;;;14.20;3.90;;;20.70;96.90;;;;;;5014850;28;20207;-65
2021/08/08 10:37:46;;;;;;;19.33;4.00;;;20.50;96.10;;;;;;5013171;28;20270;-67
2021/08/08 10:40:14;;;;;;;26.00;4.00;;;20.40;96.40;;;;;;5011194;28;20216;-67
2021/08/08 10:42:43;;;;;;;18.90;3.75;;;20.40;96.10;;;;;;5017182;28;20390;-66
2021/08/08 10:45:22;;;;;;;17.75;4.25;;;20.50;95.90;;;;;;5013437;28;20259;-67
2021/08/08 10:47:55;;;;;;;13.15;3.58;;;20.70;95.80;;;;;;5015773;28;20196;-66
2021/08/08 10:50:22;;;;;;;19.15;3.60;;;21.10;95.40;;;;;;5015378;28;20208;-67
2021/08/08 10:52:49;;;;;;;11.27;2.92;;;21.60;93.90;;;;;;5014791;28;20103;-66
2021/08/08 10:55:22;;;;;;;18.15;3.47;;;21.90;92.90;;;;;;5014127;28;20258;-66
2021/08/08 10:57:50;;;;;;;12.70;2.60;;;22.30;91.50;;;;;;5015492;28;20203;-65
2021/08/08 11:00:18;;;;;;;13.07;3.10;;;22.70;90.50;;;;;;5014257;28;20241;-66
2021/08/08 11:02:45;;;;;;;12.70;2.80;;;23.00;88.20;;;;;;5011958;28;20423;-65
2021/08/08 11:05:13;;;;;;;14.60;3.22;;;23.40;86.40;;;;;;5014770;28;20231;-65
2021/08/08 11:07:41;;;;;;;16.02;3.13;;;23.70;84.20;;;;;;5015349;28;20204;-67
2021/08/08 11:10:08;;;;;;;;;;;23.80;82.70;;;;;;5011110;28;20212;-68
2021/08/08 11:12:37;;;;;;;12.77;2.88;;;23.90;81.20;;;;;;5010741;28;20394;-67
2021/08/08 11:15:06;;;;;;;15.68;3.15;;;23.90;79.30;;;;;;5012989;28;20217;-65
2021/08/08 11:17:33;;;;;;;19.33;2.88;;;23.80;77.40;;;;;;5012307;28;20237;-65
2021/08/08 11:20:00;;;;;;;17.80;2.88;;;23.40;77.40;;;;;;5012102;28;20209;-68
2021/08/08 11:22:28;;;;;;;15.60;3.33;;;23.10;78.50;;;;;;5010115;28;20215;-68
2021/08/08 11:25:00;;;;;;;16.75;3.28;;;22.80;79.20;;;;;;5011126;28;20251;-67
2021/08/08 11:27:32;;;;;;;14.32;3.60;;;22.50;79.90;;;;;;5012307;28;20232;-65
2021/08/08 11:29:59;;;;;;;13.32;3.15;;;22.40;81.20;;;;;;5011729;28;20204;-65
2021/08/08 11:32:32;;;;;;;14.15;2.85;;;22.20;82.30;;;;;;5010460;28;20217;-67
2021/08/08 11:35:04;;;;;;;16.77;3.33;;;22.00;82.30;;;;;;5011911;28;20251;-63
2021/08/08 11:37:32;;;;;;;13.80;2.85;;;22.00;82.40;;;;;;5009091;28;20220;-64
2021/08/08 11:39:59;;;;;;;14.35;2.78;;;22.10;82.10;;;;;;5009280;28;20327;-65
2021/08/08 11:42:31;;;;;;;15.88;2.83;;;22.10;81.70;;;;;;5006819;28;20247;-66
2021/08/08 11:44:59;;;;;;;16.20;3.08;;;22.10;81.10;;;;;;5008558;28;20336;-68
2021/08/08 11:47:27;;;;;;;13.65;3.33;;;22.00;81.30;;;;;;5011246;28;20266;-67
2021/08/08 11:49:55;;;;;;;10.95;2.65;;;22.00;81.80;;;;;;5004396;28;20654;-68
2021/08/08 11:52:22;;;;;;;18.20;3.13;;;21.90;80.80;;;;;;5010499;28;20119;-70
2021/08/08 11:54:59;;;;;;;15.50;2.80;;;21.80;81.30;;;;;;5005192;28;20196;-65
2021/08/08 11:57:27;;;;;;;17.73;3.65;;;21.80;81.40;;;;;;5008279;28;20220;-68
2021/08/08 11:59:54;;;;;;;22.50;3.67;;;22.00;81.30;;;;;;5011510;28;20216;-67
2021/08/08 12:02:24;;;;;;;13.13;2.75;;;22.40;80.30;;;;;;5011300;28;20200;-68
2021/08/08 12:04:53;;;;;;;16.65;3.00;;;22.80;78.90;;;;;;5009077;28;20203;-66
2021/08/08 12:07:23;;;;;;;16.58;2.90;;;23.20;77.70;;;;;;5013444;28;20204;-65
2021/08/08 12:09:51;;;;;;;26.35;3.33;;;23.40;76.70;;;;;;5009629;28;20844;-66
2021/08/08 12:12:19;;;;;;;9.32;3.00;;;23.50;76.50;;;;;;5007857;28;20233;-67
2021/08/08 12:14:56;;;;;;;13.93;2.95;;;23.60;76.00;;;;;;5011087;28;20212;-64
2021/08/08 12:17:23;;;;;;;14.55;3.35;;;23.60;75.50;;;;;;5003268;28;20227;-66
2021/08/08 12:19:54;;;;;;;12.25;3.05;;;23.30;75.30;;;;;;5009531;28;20201;-66
2021/08/08 12:22:25;;;;;;;17.30;3.17;;;23.10;75.70;;;;;;5009506;28;20200;-66
2021/08/08 12:25:03;;;;;;;14.05;2.95;;;22.90;76.20;;;;;;5011167;28;20215;-67
2021/08/08 12:27:32;;;;;;;17.02;3.75;;;22.90;77.20;;;;;;5010018;28;20608;-66
2021/08/08 12:29:59;;;;;;;12.60;2.70;;;22.90;77.30;;;;;;5010619;28;20204;-67
2021/08/08 12:32:32;;;;;;;20.45;3.50;;;22.90;76.80;;;;;;5010946;28;20232;-66
2021/08/08 12:35:07;;;;;;;15.10;3.40;;;22.80;77.70;;;;;;5008242;28;20251;-66
2021/08/08 12:37:35;;;;;;;17.63;3.28;;;22.60;77.70;;;;;;5009639;28;20676;-68
2021/08/08 12:40:10;;;;;;;;;;;22.40;78.40;;;;;;5010269;28;20200;-65
2021/08/08 12:42:38;;;;;;;19.33;3.53;;;22.20;79.20;;;;;;5008444;28;21024;-68
2021/08/08 12:45:08;;;;;;;17.70;3.70;;;22.10;80.00;;;;;;5010888;28;20219;-65
2021/08/08 12:47:35;;;;;;;13.55;3.00;;;22.10;80.30;;;;;;5008077;28;20208;-67
2021/08/08 12:50:14;;;;;;;20.17;3.60;;;22.20;80.10;;;;;;5009383;28;20621;-65
2021/08/08 12:52:42;;;;;;;19.50;3.47;;;22.30;79.70;;;;;;5006630;28;20251;-66
2021/08/08 12:55:12;;;;;;;17.83;3.60;;;22.40;79.20;;;;;;5006004;28;20208;-66
2021/08/08 12:57:39;;;;;;;19.95;3.33;;;22.50;78.60;;;;;;5002227;28;20271;-67